Time;durP1;ratioP1;P1;durP2;ratioP2;P2;SDS_P1;SDS_P2;PMS_P1;PMS_P2;Temp;Humidity;BMP_temperature;BMP_pressure;BME280_temperature;BME280_humidity;BME280_pressure;Samples;Min_cycle;Max_cycle;Signal;HPM_P1;HPM_P2
2021/09/08 00:00:23;;;;;;;9.50;5.13;;;20.80;61.30;;;;;;5054354;28;20096;-69
2021/09/08 00:02:49;;;;;;;8.52;4.53;;;20.80;61.30;;;;;;5052969;28;20161;-69
2021/09/08 00:05:14;;;;;;;7.88;4.45;;;20.80;61.40;;;;;;5054476;28;20024;-69
2021/09/08 00:07:40;;;;;;;8.13;4.75;;;20.80;61.40;;;;;;5054088;28;20033;-69
2021/09/08 00:10:07;;;;;;;7.88;4.57;;;20.80;61.30;;;;;;5054074;28;20490;-69
2021/09/08 00:12:33;;;;;;;8.55;4.55;;;20.80;61.40;;;;;;5053922;28;20396;-69
2021/09/08 00:14:59;;;;;;;9.43;4.97;;;20.80;61.40;;;;;;5054148;28;20025;-69
2021/09/08 00:17:24;;;;;;;9.25;5.20;;;20.80;61.40;;;;;;5054192;28;20665;-69
2021/09/08 00:19:50;;;;;;;8.98;4.93;;;20.80;61.40;;;;;;5053916;28;20025;-69
2021/09/08 00:22:15;;;;;;;7.60;4.40;;;20.80;61.40;;;;;;5053859;28;20029;-69
2021/09/08 00:24:41;;;;;;;7.78;4.50;;;20.80;61.40;;;;;;5053844;28;20526;-69
2021/09/08 00:27:07;;;;;;;7.50;4.57;;;20.80;61.50;;;;;;5054028;28;20048;-70
2021/09/08 00:29:34;;;;;;;8.13;4.57;;;20.80;61.40;;;;;;5053693;28;20392;-69
2021/09/08 00:32:00;;;;;;;8.50;4.78;;;20.70;61.40;;;;;;5053626;28;20049;-69
2021/09/08 00:34:26;;;;;;;7.18;4.20;;;20.70;61.50;;;;;;5053694;28;20025;-70
2021/09/08 00:36:51;;;;;;;7.90;4.03;;;20.70;61.50;;;;;;5053648;28;20032;-69
2021/09/08 00:39:17;;;;;;;8.32;4.47;;;20.70;61.50;;;;;;5053376;28;20060;-70
2021/09/08 00:41:42;;;;;;;7.85;4.25;;;20.70;61.50;;;;;;5052167;28;20116;-70
2021/09/08 00:44:14;;;;;;;7.63;4.63;;;20.70;61.40;;;;;;5053444;28;20029;-70
2021/09/08 00:46:40;;;;;;;7.82;4.57;;;20.70;61.50;;;;;;5053415;28;20415;-70
2021/09/08 00:49:06;;;;;;;7.65;4.22;;;20.70;61.40;;;;;;5053386;28;20029;-70
2021/09/08 00:51:33;;;;;;;8.10;4.50;;;20.70;61.50;;;;;;5053398;28;20361;-70
2021/09/08 00:53:59;;;;;;;7.43;4.05;;;20.70;61.50;;;;;;5053525;28;20421;-68
2021/09/08 00:56:29;;;;;;;7.63;4.70;;;20.70;61.50;;;;;;5053294;28;20028;-70
2021/09/08 00:58:55;;;;;;;7.28;4.13;;;20.70;61.50;;;;;;5053202;28;20028;-69
2021/09/08 01:01:20;;;;;;;8.30;4.43;;;20.70;61.50;;;;;;5053167;28;20025;-70
2021/09/08 01:03:47;;;;;;;8.50;4.47;;;20.70;61.40;;;;;;5053152;28;20426;-70
2021/09/08 01:06:13;;;;;;;8.25;4.50;;;20.70;61.50;;;;;;5053126;28;20033;-70
2021/09/08 01:08:38;;;;;;;8.05;4.40;;;20.70;61.50;;;;;;5053153;28;20361;-70
2021/09/08 01:11:05;;;;;;;6.75;4.07;;;20.60;61.50;;;;;;5052860;28;20025;-70
2021/09/08 01:13:32;;;;;;;8.48;4.70;;;20.70;61.50;;;;;;5052862;28;20040;-70
2021/09/08 01:16:01;;;;;;;8.00;4.72;;;20.70;61.50;;;;;;5052942;28;20088;-70
2021/09/08 01:18:26;;;;;;;9.82;4.68;;;20.70;61.50;;;;;;5052975;28;20020;-70
2021/09/08 01:20:52;;;;;;;7.40;4.38;;;20.60;61.50;;;;;;5052976;28;20388;-70
2021/09/08 01:23:17;;;;;;;7.53;4.43;;;20.70;61.60;;;;;;5052823;28;20052;-70
2021/09/08 01:25:43;;;;;;;7.85;4.32;;;20.60;61.60;;;;;;5052906;28;20025;-70
2021/09/08 01:28:09;;;;;;;9.38;4.47;;;20.60;61.60;;;;;;5052911;28;20037;-69
2021/09/08 01:30:34;;;;;;;8.07;4.72;;;20.60;61.60;;;;;;5052790;28;20029;-70
2021/09/08 01:33:01;;;;;;;8.93;4.57;;;20.60;61.60;;;;;;5052858;28;20388;-70
2021/09/08 01:35:27;;;;;;;9.00;4.50;;;20.60;61.60;;;;;;5052958;28;20040;-69
2021/09/08 01:37:52;;;;;;;7.82;4.63;;;20.60;61.60;;;;;;5052428;28;20408;-70
2021/09/08 01:40:18;;;;;;;7.35;4.15;;;20.50;61.60;;;;;;5052654;28;20040;-69
2021/09/08 01:42:46;;;;;;;7.93;4.53;;;20.60;61.60;;;;;;5052987;28;20384;-68
2021/09/08 01:45:13;;;;;;;7.53;4.32;;;20.60;61.60;;;;;;5052802;28;20449;-69
2021/09/08 01:47:39;;;;;;;8.48;4.50;;;20.60;61.70;;;;;;5052546;28;20056;-69
2021/09/08 01:50:07;;;;;;;8.18;4.40;;;20.50;61.70;;;;;;5052936;28;20026;-69
2021/09/08 01:52:33;;;;;;;7.13;3.88;;;20.50;61.70;;;;;;5052531;28;20025;-69
2021/09/08 01:54:58;;;;;;;7.32;4.25;;;20.60;61.70;;;;;;5052614;28;20029;-69
2021/09/08 01:57:24;;;;;;;9.10;4.60;;;20.50;61.70;;;;;;5052636;28;20017;-70
2021/09/08 01:59:49;;;;;;;9.32;4.32;;;20.50;61.70;;;;;;5052809;28;20086;-69
2021/09/08 02:02:15;;;;;;;8.00;4.30;;;20.50;61.70;;;;;;5052560;28;20055;-69
2021/09/08 02:04:40;;;;;;;10.40;4.65;;;20.50;61.70;;;;;;5051187;28;20075;-69
2021/09/08 02:07:06;;;;;;;7.85;4.32;;;20.50;61.80;;;;;;5052379;28;20036;-69
2021/09/08 02:09:31;;;;;;;7.28;4.22;;;20.50;61.80;;;;;;5051173;28;20048;-69
2021/09/08 02:11:57;;;;;;;8.27;4.47;;;20.50;61.80;;;;;;5052394;28;20025;-69
2021/09/08 02:14:23;;;;;;;7.40;4.07;;;20.50;61.80;;;;;;5052361;28;20089;-69
2021/09/08 02:16:49;;;;;;;7.38;4.47;;;20.50;61.90;;;;;;5052359;28;20474;-69
2021/09/08 02:19:14;;;;;;;8.00;4.68;;;20.50;61.90;;;;;;5052607;28;20033;-69
2021/09/08 02:21:40;;;;;;;7.93;4.55;;;20.50;61.90;;;;;;5052349;28;20025;-69
2021/09/08 02:24:05;;;;;;;8.35;4.68;;;20.50;61.90;;;;;;5056127;28;20039;-69
2021/09/08 02:26:31;;;;;;;7.63;4.20;;;20.40;61.90;;;;;;5056226;28;20029;-69
2021/09/08 02:28:57;;;;;;;8.13;4.72;;;20.50;61.90;;;;;;5054588;28;20033;-69
2021/09/08 02:31:23;;;;;;;8.63;4.80;;;20.40;62.00;;;;;;5055022;28;20024;-69
2021/09/08 02:33:49;;;;;;;8.35;5.00;;;20.40;61.90;;;;;;5055972;28;20191;-69
2021/09/08 02:36:14;;;;;;;9.00;4.75;;;20.40;62.00;;;;;;5055834;28;20108;-69
2021/09/08 02:38:40;;;;;;;8.52;4.63;;;20.40;62.00;;;;;;5055682;28;20124;-69
2021/09/08 02:41:07;;;;;;;8.52;4.78;;;20.40;62.00;;;;;;5055762;28;20029;-69
2021/09/08 02:43:34;;;;;;;8.30;4.65;;;20.40;61.90;;;;;;5056023;28;20380;-69
2021/09/08 02:46:02;;;;;;;8.30;4.63;;;20.40;62.00;;;;;;5055679;28;20484;-69
2021/09/08 02:48:29;;;;;;;8.07;4.25;;;20.40;62.00;;;;;;5055593;28;20065;-69
2021/09/08 02:50:55;;;;;;;6.97;4.15;;;20.40;62.10;;;;;;5055657;28;20029;-69
2021/09/08 02:53:20;;;;;;;8.63;4.70;;;20.40;62.00;;;;;;5055544;28;20025;-69
2021/09/08 02:55:46;;;;;;;8.95;4.75;;;20.40;62.00;;;;;;5054276;28;20036;-69
2021/09/08 02:58:11;;;;;;;7.55;4.32;;;20.40;62.10;;;;;;5055874;28;20104;-69
2021/09/08 03:00:37;;;;;;;7.35;4.40;;;20.30;62.10;;;;;;5055488;28;20022;-69
2021/09/08 03:03:03;;;;;;;7.38;4.32;;;20.30;62.10;;;;;;5055560;28;20044;-69
2021/09/08 03:05:28;;;;;;;7.90;4.18;;;20.30;62.10;;;;;;5054161;28;20025;-70
2021/09/08 03:07:54;;;;;;;8.25;4.90;;;20.30;62.10;;;;;;5055338;28;20084;-70
2021/09/08 03:10:20;;;;;;;10.00;4.47;;;20.30;62.10;;;;;;5055306;28;20025;-69
2021/09/08 03:12:45;;;;;;;8.70;4.80;;;20.30;62.10;;;;;;5055213;28;20361;-69
2021/09/08 03:15:11;;;;;;;7.88;4.85;;;20.30;62.20;;;;;;5055235;28;20032;-69
2021/09/08 03:17:36;;;;;;;8.38;4.65;;;20.30;62.20;;;;;;5055282;28;20119;-69
2021/09/08 03:20:03;;;;;;;7.85;4.78;;;20.30;62.20;;;;;;5053952;28;20542;-69
2021/09/08 03:22:29;;;;;;;7.78;4.43;;;20.30;62.20;;;;;;5055073;28;20021;-69
2021/09/08 03:24:54;;;;;;;7.82;4.25;;;20.30;62.20;;;;;;5054988;28;20025;-69
2021/09/08 03:27:19;;;;;;;7.70;4.43;;;20.30;62.20;;;;;;5053709;28;20031;-69
2021/09/08 03:29:45;;;;;;;7.78;4.50;;;20.30;62.30;;;;;;5054995;28;20021;-69
2021/09/08 03:32:11;;;;;;;8.07;4.57;;;20.20;62.30;;;;;;5054930;28;20389;-69
2021/09/08 03:34:36;;;;;;;8.05;4.47;;;20.20;62.30;;;;;;5054480;28;20493;-69
2021/09/08 03:37:02;;;;;;;10.13;5.13;;;20.20;62.30;;;;;;5055107;28;20132;-69
2021/09/08 03:39:27;;;;;;;8.45;4.50;;;20.20;62.30;;;;;;5054629;28;20049;-69
2021/09/08 03:41:53;;;;;;;8.23;4.80;;;20.30;62.30;;;;;;5054908;28;20564;-69
2021/09/08 03:44:18;;;;;;;8.45;4.72;;;20.20;62.30;;;;;;5054965;28;20033;-69
2021/09/08 03:46:44;;;;;;;7.85;4.72;;;20.20;62.40;;;;;;5054723;28;20393;-69
2021/09/08 03:49:09;;;;;;;8.57;5.07;;;20.20;62.40;;;;;;5054369;28;20033;-69
2021/09/08 03:51:35;;;;;;;7.60;4.47;;;20.20;62.40;;;;;;5054585;28;20414;-70
2021/09/08 03:54:00;;;;;;;8.90;4.60;;;20.20;62.40;;;;;;5054490;28;20086;-68
2021/09/08 03:56:26;;;;;;;7.93;4.53;;;20.20;62.40;;;;;;5054580;28;20017;-69
2021/09/08 03:58:53;;;;;;;8.50;5.20;;;20.20;62.50;;;;;;5054486;28;20025;-69
2021/09/08 04:01:18;;;;;;;9.32;4.85;;;20.10;62.50;;;;;;5054658;28;20059;-69
2021/09/08 04:03:47;;;;;;;7.35;4.32;;;20.10;62.50;;;;;;5054342;28;20044;-69
2021/09/08 04:06:13;;;;;;;9.13;5.07;;;20.10;62.50;;;;;;5054232;28;20029;-69
2021/09/08 04:08:39;;;;;;;8.80;5.25;;;20.10;62.50;;;;;;5052880;28;20033;-69
2021/09/08 04:11:04;;;;;;;7.30;4.40;;;20.10;62.50;;;;;;5054269;28;20063;-69
2021/09/08 04:13:30;;;;;;;8.48;4.65;;;20.10;62.50;;;;;;5054369;28;20456;-70
2021/09/08 04:15:55;;;;;;;8.25;4.65;;;20.10;62.50;;;;;;5054231;28;20036;-70
2021/09/08 04:18:21;;;;;;;8.57;4.40;;;20.10;62.50;;;;;;5054008;28;20370;-70
2021/09/08 04:20:46;;;;;;;8.18;4.65;;;20.10;62.60;;;;;;5053959;28;20021;-70
2021/09/08 04:23:12;;;;;;;8.30;4.90;;;20.10;62.60;;;;;;5053847;28;20182;-69
2021/09/08 04:25:37;;;;;;;8.65;4.57;;;20.10;62.60;;;;;;5053735;28;20029;-70
2021/09/08 04:28:03;;;;;;;7.78;4.68;;;20.10;62.60;;;;;;5053657;28;20033;-70
2021/09/08 04:30:29;;;;;;;7.85;4.43;;;20.10;62.60;;;;;;5053733;28;20488;-70
2021/09/08 04:32:54;;;;;;;7.10;4.40;;;20.10;62.60;;;;;;5053623;28;20447;-70
2021/09/08 04:35:20;;;;;;;8.15;5.00;;;20.00;62.60;;;;;;5053571;28;20033;-70
2021/09/08 04:37:45;;;;;;;7.70;4.38;;;20.00;62.60;;;;;;5053381;28;20072;-69
2021/09/08 04:40:11;;;;;;;7.70;4.40;;;20.10;62.70;;;;;;5053405;28;20112;-70
2021/09/08 04:42:37;;;;;;;8.30;4.90;;;20.00;62.70;;;;;;5053380;28;20104;-70
2021/09/08 04:45:03;;;;;;;8.18;4.65;;;20.00;62.70;;;;;;5052736;28;20104;-70
2021/09/08 04:47:29;;;;;;;7.75;4.68;;;20.00;62.70;;;;;;5052011;28;20025;-69
2021/09/08 04:49:55;;;;;;;8.07;4.65;;;20.00;62.70;;;;;;5053354;28;20132;-70
2021/09/08 04:52:20;;;;;;;9.90;5.13;;;20.00;62.70;;;;;;5053557;28;20131;-70
2021/09/08 04:54:46;;;;;;;7.63;4.47;;;20.00;62.70;;;;;;5052379;28;20025;-70
2021/09/08 04:57:11;;;;;;;8.27;4.85;;;20.00;62.80;;;;;;5053294;28;20041;-70
2021/09/08 04:59:37;;;;;;;7.65;4.63;;;20.00;62.80;;;;;;5053166;28;20060;-71
2021/09/08 05:02:02;;;;;;;7.70;4.40;;;20.00;62.80;;;;;;5051755;28;20079;-70
2021/09/08 05:04:28;;;;;;;7.50;4.43;;;20.00;62.80;;;;;;5052001;28;20021;-70
2021/09/08 05:06:53;;;;;;;8.23;4.40;;;20.00;62.80;;;;;;5053022;28;20499;-69
2021/09/08 05:09:19;;;;;;;9.82;4.53;;;20.00;62.80;;;;;;5053274;28;20029;-70
2021/09/08 05:11:45;;;;;;;7.97;4.78;;;20.00;62.80;;;;;;5053031;28;20472;-70
2021/09/08 05:14:10;;;;;;;8.63;4.35;;;20.00;62.80;;;;;;5053146;28;20526;-70
2021/09/08 05:16:36;;;;;;;8.77;5.03;;;20.00;62.80;;;;;;5052881;28;20029;-70
2021/09/08 05:19:01;;;;;;;8.82;4.93;;;20.00;62.80;;;;;;5052883;28;20025;-70
2021/09/08 05:21:27;;;;;;;7.78;4.53;;;20.00;62.80;;;;;;5052956;28;20021;-70
2021/09/08 05:23:53;;;;;;;8.30;4.72;;;20.00;62.80;;;;;;5052756;28;20029;-70
2021/09/08 05:26:18;;;;;;;8.25;4.55;;;20.00;62.80;;;;;;5052781;28;20029;-70
2021/09/08 05:28:44;;;;;;;8.60;4.88;;;19.90;62.80;;;;;;5052629;28;20041;-70
2021/09/08 05:31:09;;;;;;;8.32;4.80;;;20.00;62.80;;;;;;5052596;28;20087;-70
2021/09/08 05:33:35;;;;;;;9.38;5.20;;;19.90;62.90;;;;;;5052624;28;20053;-71
2021/09/08 05:36:00;;;;;;;8.02;4.75;;;19.90;62.90;;;;;;5052605;28;20481;-70
2021/09/08 05:38:26;;;;;;;8.50;4.18;;;19.90;62.80;;;;;;5052435;28;20083;-70
2021/09/08 05:40:52;;;;;;;8.38;4.88;;;19.90;62.90;;;;;;5051354;28;20029;-70
2021/09/08 05:43:17;;;;;;;7.97;4.70;;;19.90;62.80;;;;;;5051253;28;20463;-70
2021/09/08 05:45:43;;;;;;;8.27;4.95;;;19.90;62.90;;;;;;5052460;28;20494;-70
2021/09/08 05:48:09;;;;;;;9.00;4.30;;;19.90;62.90;;;;;;5052524;28;20116;-70
2021/09/08 05:50:35;;;;;;;8.65;4.78;;;19.90;62.80;;;;;;5052569;28;20024;-70
2021/09/08 05:53:03;;;;;;;8.23;4.70;;;20.00;62.80;;;;;;5052479;28;20033;-70
2021/09/08 05:55:29;;;;;;;8.48;4.63;;;19.90;62.90;;;;;;5052544;28;20618;-70
2021/09/08 05:57:54;;;;;;;8.93;4.88;;;19.90;62.90;;;;;;5056480;28;20025;-70
2021/09/08 06:00:20;;;;;;;8.93;4.80;;;19.90;62.90;;;;;;5055343;28;20039;-70
2021/09/08 06:02:46;;;;;;;8.38;5.07;;;19.90;62.90;;;;;;5055253;28;20021;-70
2021/09/08 06:05:11;;;;;;;8.80;5.07;;;19.90;62.80;;;;;;5055285;28;20082;-70
2021/09/08 06:07:37;;;;;;;7.90;4.75;;;19.90;62.80;;;;;;5056485;28;20047;-70
2021/09/08 06:10:03;;;;;;;8.30;5.07;;;19.90;62.80;;;;;;5055183;28;20037;-70
2021/09/08 06:12:28;;;;;;;7.88;4.53;;;19.90;62.80;;;;;;5056346;28;20090;-71
2021/09/08 06:14:54;;;;;;;7.35;4.63;;;19.90;62.80;;;;;;5056237;28;20447;-70
2021/09/08 06:17:20;;;;;;;8.95;4.97;;;19.90;62.80;;;;;;5056393;28;20021;-70
2021/09/08 06:19:45;;;;;;;8.18;4.78;;;19.90;62.90;;;;;;5056508;28;20067;-70
2021/09/08 06:22:11;;;;;;;9.27;5.07;;;19.90;62.80;;;;;;5054888;28;20021;-70
2021/09/08 06:24:36;;;;;;;8.63;5.07;;;19.90;62.90;;;;;;5056185;28;20078;-70
2021/09/08 06:27:02;;;;;;;7.72;4.80;;;19.90;62.80;;;;;;5055994;28;20032;-70
2021/09/08 06:29:28;;;;;;;9.73;4.70;;;19.90;62.80;;;;;;5055948;28;20094;-70
2021/09/08 06:31:54;;;;;;;8.48;4.60;;;19.90;62.80;;;;;;5055985;28;20377;-70
2021/09/08 06:34:19;;;;;;;7.85;4.43;;;19.90;62.80;;;;;;5048407;28;20409;-70
2021/09/08 06:36:45;;;;;;;8.25;4.90;;;19.90;62.80;;;;;;5042963;28;20038;-70
2021/09/08 06:39:10;;;;;;;8.82;4.80;;;19.90;62.80;;;;;;5041900;28;20037;-71
2021/09/08 06:41:36;;;;;;;8.35;4.97;;;19.90;62.80;;;;;;5036544;28;20029;-71
2021/09/08 06:44:02;;;;;;;9.00;4.70;;;19.90;62.80;;;;;;5035811;28;20477;-71
2021/09/08 06:46:27;;;;;;;8.00;5.05;;;19.90;62.70;;;;;;5035895;28;20043;-72
2021/09/08 06:48:53;;;;;;;7.72;4.82;;;19.90;62.70;;;;;;5052214;28;20091;-72
2021/09/08 06:51:18;;;;;;;8.05;4.57;;;19.90;62.60;;;;;;5049818;28;20036;-72
2021/09/08 06:53:44;;;;;;;8.77;4.65;;;20.00;62.60;;;;;;5043183;28;20029;-69
2021/09/08 06:56:09;;;;;;;9.98;5.47;;;20.00;62.60;;;;;;5047758;28;20378;-70
2021/09/08 06:58:35;;;;;;;7.75;4.43;;;20.00;62.60;;;;;;5018050;28;20067;-72
2021/09/08 07:01:01;;;;;;;7.93;4.47;;;20.00;62.60;;;;;;5046648;28;20059;-70
2021/09/08 07:03:26;;;;;;;8.10;4.72;;;20.00;62.60;;;;;;5041921;28;20037;-70
2021/09/08 07:05:52;;;;;;;7.82;4.22;;;20.00;62.60;;;;;;5052450;28;20025;-69
2021/09/08 07:08:17;;;;;;;9.88;4.53;;;20.00;62.50;;;;;;5042510;28;20051;-69
2021/09/08 07:10:43;;;;;;;9.07;5.15;;;20.10;62.50;;;;;;5049127;28;20035;-67
2021/09/08 07:13:08;;;;;;;10.05;5.00;;;20.10;62.50;;;;;;5038260;28;20482;-70
2021/09/08 07:15:34;;;;;;;7.82;4.90;;;20.10;62.30;;;;;;5033982;28;20033;-70
2021/09/08 07:18:01;;;;;;;9.85;4.63;;;20.10;62.40;;;;;;5048048;28;20112;-70
2021/09/08 07:20:26;;;;;;;8.23;4.60;;;20.10;62.30;;;;;;5045212;28;20108;-70
2021/09/08 07:22:52;;;;;;;9.27;4.75;;;20.10;62.40;;;;;;5049251;28;20103;-71
2021/09/08 07:25:17;;;;;;;9.05;5.15;;;20.20;62.40;;;;;;5047985;28;20040;-69
2021/09/08 07:27:43;;;;;;;10.13;5.00;;;20.20;62.50;;;;;;5044145;28;20112;-68
2021/09/08 07:30:09;;;;;;;8.43;4.70;;;20.10;62.50;;;;;;5045915;28;20048;-68
2021/09/08 07:32:35;;;;;;;8.75;4.50;;;20.20;62.40;;;;;;5045685;28;20419;-69
2021/09/08 07:35:01;;;;;;;7.75;4.50;;;20.20;62.30;;;;;;5046771;28;20131;-70
2021/09/08 07:37:27;;;;;;;8.73;4.88;;;20.20;62.30;;;;;;5045951;28;20017;-69
2021/09/08 07:39:53;;;;;;;8.52;4.70;;;20.30;62.20;;;;;;5045832;28;20590;-71
2021/09/08 07:42:19;;;;;;;7.40;4.50;;;20.30;62.10;;;;;;5044312;28;20037;-64
2021/09/08 07:44:45;;;;;;;8.30;4.53;;;20.30;62.00;;;;;;5044890;28;20036;-65
2021/09/08 07:47:11;;;;;;;10.02;4.63;;;20.30;62.10;;;;;;5051525;28;20021;-60
2021/09/08 07:49:37;;;;;;;8.18;4.63;;;20.40;61.90;;;;;;5056040;28;20388;-59
2021/09/08 07:52:03;;;;;;;8.73;5.03;;;20.40;61.90;;;;;;5038347;28;20036;-60
2021/09/08 07:54:29;;;;;;;8.05;4.60;;;20.40;61.90;;;;;;5044347;28;20029;-60
2021/09/08 07:56:54;;;;;;;7.63;4.03;;;20.40;62.00;;;;;;5043593;28;20491;-60
2021/09/08 07:59:20;;;;;;;8.50;4.78;;;20.50;61.90;;;;;;5036389;28;20078;-61
2021/09/08 08:01:45;;;;;;;8.00;4.78;;;20.50;61.90;;;;;;5050807;28;20021;-60
2021/09/08 08:04:11;;;;;;;7.65;4.40;;;20.50;61.90;;;;;;5044865;28;20465;-61
2021/09/08 08:06:37;;;;;;;8.73;5.22;;;20.50;61.90;;;;;;5017723;28;20469;-61
2021/09/08 08:09:04;;;;;;;8.82;4.78;;;20.50;61.80;;;;;;5024623;28;20045;-62
2021/09/08 08:11:29;;;;;;;8.45;4.93;;;20.60;61.70;;;;;;5050599;28;20159;-61
2021/09/08 08:13:55;;;;;;;10.90;4.50;;;20.60;61.70;;;;;;5038055;28;20067;-59
2021/09/08 08:16:20;;;;;;;9.93;4.93;;;20.60;61.70;;;;;;5056748;28;20031;-60
2021/09/08 08:18:46;;;;;;;8.80;5.15;;;20.60;61.70;;;;;;5033590;28;20053;-60
2021/09/08 08:21:11;;;;;;;7.90;4.70;;;20.60;61.70;;;;;;5037191;28;20038;-62
2021/09/08 08:23:37;;;;;;;9.40;4.93;;;20.60;61.70;;;;;;5050492;28;20112;-60
2021/09/08 08:26:03;;;;;;;10.05;4.30;;;20.60;61.70;;;;;;5049092;28;20057;-63
2021/09/08 08:28:30;;;;;;;9.32;5.03;;;20.70;61.70;;;;;;5037540;28;20029;-64
2021/09/08 08:30:57;;;;;;;8.60;4.45;;;20.70;61.70;;;;;;5049022;28;20391;-61
2021/09/08 08:33:22;;;;;;;9.48;4.40;;;20.70;61.70;;;;;;5050139;28;20538;-62
2021/09/08 08:35:48;;;;;;;7.65;4.47;;;20.70;61.70;;;;;;5046255;28;20029;-64
2021/09/08 08:38:13;;;;;;;8.05;4.80;;;20.70;61.80;;;;;;5031462;28;20866;-65
2021/09/08 08:40:39;;;;;;;9.98;4.93;;;20.70;61.80;;;;;;5046936;28;20017;-63
2021/09/08 08:43:04;;;;;;;7.50;4.60;;;20.70;61.80;;;;;;5049119;28;20060;-60
2021/09/08 08:45:30;;;;;;;8.80;4.60;;;20.70;61.80;;;;;;5033081;28;20473;-60
2021/09/08 08:47:58;;;;;;;8.63;4.65;;;20.70;61.80;;;;;;5042060;28;20111;-60
2021/09/08 08:50:26;;;;;;;8.75;4.60;;;20.70;61.90;;;;;;5023328;28;20033;-60
2021/09/08 08:52:55;;;;;;;14.93;4.55;;;20.70;61.90;;;;;;5037425;28;20029;-61
2021/09/08 08:55:21;;;;;;;8.43;4.65;;;20.70;61.80;;;;;;5042356;28;20017;-61
2021/09/08 08:57:50;;;;;;;9.10;4.50;;;20.70;61.90;;;;;;5037363;28;20402;-61
2021/09/08 09:00:20;;;;;;;9.82;4.70;;;20.70;61.90;;;;;;5031961;28;20500;-61
2021/09/08 09:02:50;;;;;;;9.93;4.82;;;20.70;61.90;;;;;;5035189;28;20037;-62
2021/09/08 09:05:38;;;;;;;7.82;4.63;;;20.80;62.00;;;;;;5041570;28;20035;-62
2021/09/08 09:08:07;;;;;;;8.88;4.65;;;20.80;61.90;;;;;;5027680;28;20060;-60
2021/09/08 09:10:34;;;;;;;7.65;4.70;;;20.80;61.90;;;;;;5044533;28;20033;-63
2021/09/08 09:13:00;;;;;;;9.85;4.25;;;20.80;61.90;;;;;;5050724;28;20028;-61
2021/09/08 09:15:25;;;;;;;8.32;4.82;;;20.80;61.90;;;;;;5051101;28;20025;-64
2021/09/08 09:17:52;;;;;;;7.93;4.57;;;20.80;62.00;;;;;;5036117;28;20797;-59
2021/09/08 09:20:32;;;;;;;11.10;5.32;;;20.80;61.90;;;;;;5031636;28;20108;-63
2021/09/08 09:23:02;;;;;;;7.72;4.93;;;20.80;61.90;;;;;;5043931;28;20018;-63
2021/09/08 09:25:36;;;;;;;8.18;4.82;;;20.80;62.00;;;;;;5031735;28;20025;-60
2021/09/08 09:28:04;;;;;;;11.10;4.70;;;20.90;61.90;;;;;;5032182;28;20037;-61
2021/09/08 09:30:33;;;;;;;9.00;4.72;;;20.90;61.90;;;;;;5050280;28;20111;-60
2021/09/08 09:33:00;;;;;;;7.95;4.38;;;20.90;62.10;;;;;;5053358;28;20068;-61
2021/09/08 09:35:28;;;;;;;9.98;4.88;;;20.90;62.00;;;;;;5042660;28;20071;-64
2021/09/08 09:37:56;;;;;;;7.55;4.32;;;20.90;62.00;;;;;;5041092;28;20041;-65
2021/09/08 09:40:28;;;;;;;8.02;4.57;;;20.90;62.10;;;;;;5031723;28;20100;-63
2021/09/08 09:42:54;;;;;;;11.85;4.40;;;20.90;62.00;;;;;;5035328;28;20515;-62
2021/09/08 09:45:20;;;;;;;7.90;4.60;;;21.00;62.00;;;;;;5062769;28;20393;-63
2021/09/08 09:47:48;;;;;;;9.00;4.65;;;21.00;62.00;;;;;;5046800;28;20047;-62
2021/09/08 09:50:19;;;;;;;9.35;4.65;;;21.00;62.00;;;;;;5043614;28;20033;-60
2021/09/08 09:52:51;;;;;;;8.98;4.55;;;21.00;62.00;;;;;;5049763;28;20032;-60
2021/09/08 09:55:17;;;;;;;7.90;3.90;;;21.00;62.00;;;;;;5051338;28;20128;-60
2021/09/08 09:57:43;;;;;;;7.70;4.07;;;21.00;62.00;;;;;;5054832;28;20137;-60
2021/09/08 10:00:10;;;;;;;10.30;4.50;;;21.00;62.00;;;;;;5044995;28;20537;-60
2021/09/08 10:02:35;;;;;;;6.65;3.38;;;21.00;61.90;;;;;;5040905;28;20360;-60
2021/09/08 10:05:03;;;;;;;7.70;4.43;;;21.00;62.00;;;;;;5035909;28;20024;-63
2021/09/08 10:07:28;;;;;;;9.85;4.60;;;21.00;61.90;;;;;;5048088;28;20476;-61
2021/09/08 10:10:03;;;;;;;8.23;4.30;;;21.10;61.90;;;;;;5030688;28;20032;-62
2021/09/08 10:12:48;;;;;;;9.32;4.13;;;21.10;61.90;;;;;;5052032;28;20051;-61
2021/09/08 10:15:16;;;;;;;11.00;4.78;;;21.10;62.00;;;;;;5047569;28;20037;-61
2021/09/08 10:17:45;;;;;;;8.93;4.88;;;21.10;62.00;;;;;;5050426;28;20029;-60
2021/09/08 10:20:14;;;;;;;7.53;4.30;;;21.10;62.00;;;;;;5038833;28;21770;-60
2021/09/08 10:22:43;;;;;;;14.75;4.57;;;21.20;62.00;;;;;;5045606;28;20057;-61
2021/09/08 10:25:13;;;;;;;7.45;4.32;;;21.20;62.00;;;;;;5044449;28;20108;-61
2021/09/08 10:27:40;;;;;;;7.55;4.10;;;21.20;61.80;;;;;;5032289;28;20037;-62
2021/09/08 10:30:08;;;;;;;7.50;4.55;;;21.20;61.80;;;;;;5047891;28;20025;-61
2021/09/08 10:32:35;;;;;;;7.95;3.97;;;21.30;61.80;;;;;;5023392;28;20021;-61
2021/09/08 10:35:12;;;;;;;7.05;4.22;;;21.30;61.80;;;;;;5045960;28;20065;-63
2021/09/08 10:37:38;;;;;;;7.18;3.90;;;21.30;61.70;;;;;;5048728;28;20037;-62
2021/09/08 10:40:08;;;;;;;8.13;5.18;;;21.40;61.80;;;;;;5039933;28;20163;-63
2021/09/08 10:42:56;;;;;;;7.97;4.60;;;21.40;61.80;;;;;;5031012;28;20025;-62
2021/09/08 10:45:27;;;;;;;12.23;3.78;;;21.40;61.80;;;;;;5026796;28;20034;-61
2021/09/08 10:47:54;;;;;;;8.10;4.05;;;21.40;61.70;;;;;;5053750;28;20029;-62
2021/09/08 10:50:51;;;;;;;7.13;3.80;;;21.50;61.80;;;;;;5050738;28;20059;-60
2021/09/08 10:53:20;;;;;;;8.93;4.30;;;21.50;61.80;;;;;;5046857;28;20143;-61
2021/09/08 10:55:47;;;;;;;9.30;4.30;;;21.50;61.80;;;;;;5052054;28;20048;-60
2021/09/08 10:58:13;;;;;;;7.65;4.28;;;21.50;61.80;;;;;;5050916;28;20036;-60
2021/09/08 11:00:41;;;;;;;7.05;4.45;;;21.60;61.80;;;;;;5051873;28;20028;-63
2021/09/08 11:03:26;;;;;;;8.10;4.28;;;21.60;61.80;;;;;;5039274;28;20480;-62
2021/09/08 11:05:56;;;;;;;12.82;4.93;;;21.60;61.80;;;;;;5036337;28;20176;-63
2021/09/08 11:08:32;;;;;;;6.20;3.65;;;21.70;61.90;;;;;;5034377;28;20067;-63
2021/09/08 11:11:19;;;;;;;7.80;4.32;;;21.70;61.90;;;;;;5032712;28;20045;-62
2021/09/08 11:13:56;;;;;;;6.60;3.28;;;21.80;61.90;;;;;;5034903;28;20387;-61
2021/09/08 11:16:25;;;;;;;8.60;4.93;;;21.80;61.80;;;;;;5036885;28;20040;-63
2021/09/08 11:18:53;;;;;;;7.55;4.40;;;21.90;61.80;;;;;;5044756;28;20049;-62
2021/09/08 11:21:23;;;;;;;8.77;4.10;;;21.90;61.90;;;;;;5049195;28;20024;-65
2021/09/08 11:24:01;;;;;;;9.38;4.65;;;21.90;62.00;;;;;;5030664;28;20017;-65
2021/09/08 11:26:27;;;;;;;5.38;3.40;;;22.00;62.00;;;;;;5045422;28;20030;-64
2021/09/08 11:29:07;;;;;;;7.22;3.80;;;22.00;62.00;;;;;;5050020;28;20064;-64
2021/09/08 11:31:36;;;;;;;8.40;3.97;;;22.00;61.90;;;;;;5034334;28;20504;-64
2021/09/08 11:34:03;;;;;;;9.13;4.10;;;22.00;62.00;;;;;;5039296;28;20085;-64
2021/09/08 11:36:30;;;;;;;7.40;4.05;;;22.00;62.10;;;;;;5051737;28;20025;-63
2021/09/08 11:38:57;;;;;;;7.72;4.15;;;22.00;62.00;;;;;;5053701;28;20564;-64
2021/09/08 11:41:25;;;;;;;8.00;3.47;;;22.10;62.00;;;;;;5038218;28;20033;-62
2021/09/08 11:43:52;;;;;;;8.98;3.78;;;22.10;62.00;;;;;;5044446;28;20706;-62
2021/09/08 11:46:22;;;;;;;13.13;3.83;;;22.10;62.10;;;;;;5041908;28;20030;-61
2021/09/08 11:48:53;;;;;;;7.07;3.83;;;22.20;62.00;;;;;;5041355;28;20041;-62
2021/09/08 11:51:22;;;;;;;7.72;4.03;;;22.30;61.90;;;;;;5052214;28;20033;-62
2021/09/08 11:53:50;;;;;;;6.40;3.30;;;22.30;61.90;;;;;;5033723;28;20029;-62
2021/09/08 11:56:18;;;;;;;7.07;3.97;;;22.40;61.80;;;;;;5051775;28;20086;-62
2021/09/08 11:58:52;;;;;;;6.13;3.22;;;22.40;61.80;;;;;;5053643;28;20039;-62
2021/09/08 12:01:18;;;;;;;8.05;3.92;;;22.40;61.80;;;;;;5048574;28;20113;-62
2021/09/08 12:03:47;;;;;;;7.03;3.47;;;22.50;61.70;;;;;;5033333;28;20458;-62
2021/09/08 12:06:25;;;;;;;6.85;3.78;;;22.50;61.70;;;;;;5033407;28;20018;-61
2021/09/08 12:08:56;;;;;;;7.65;4.20;;;22.60;61.70;;;;;;5032848;28;20037;-62
2021/09/08 12:11:29;;;;;;;7.95;4.25;;;22.60;61.70;;;;;;5036626;28;20068;-62
2021/09/08 12:13:54;;;;;;;9.93;4.32;;;22.70;61.50;;;;;;5048152;28;20036;-63
2021/09/08 12:16:37;;;;;;;6.30;3.65;;;22.70;61.70;;;;;;5052701;28;20035;-62
2021/09/08 12:19:13;;;;;;;6.90;3.78;;;22.80;61.50;;;;;;5033492;28;20174;-62
2021/09/08 12:21:39;;;;;;;7.22;4.03;;;22.80;61.50;;;;;;5032569;28;20033;-63
2021/09/08 12:24:26;;;;;;;6.68;3.50;;;22.80;61.50;;;;;;5039084;28;20044;-62
2021/09/08 12:26:53;;;;;;;6.05;3.33;;;22.80;61.50;;;;;;5034831;28;20025;-62
2021/09/08 12:29:18;;;;;;;7.25;3.50;;;22.90;61.50;;;;;;5033542;28;20037;-62
2021/09/08 12:31:51;;;;;;;7.47;3.78;;;23.00;61.40;;;;;;5047221;28;20121;-62
2021/09/08 12:34:16;;;;;;;6.97;3.30;;;23.00;61.40;;;;;;5040659;28;20025;-61
2021/09/08 12:36:43;;;;;;;7.75;4.20;;;23.00;61.30;;;;;;5045123;28;20017;-63
2021/09/08 12:39:20;;;;;;;6.18;3.28;;;23.20;61.10;;;;;;5051422;28;20048;-62
2021/09/08 12:41:56;;;;;;;7.82;4.13;;;23.30;60.90;;;;;;5032888;28;20365;-62
2021/09/08 12:44:32;;;;;;;8.10;4.20;;;23.30;61.10;;;;;;5032380;28;20032;-62